Time;durP1;ratioP1;P1;durP2;ratioP2;P2;SDS_P1;SDS_P2;PMS_P1;PMS_P2;Temp;Humidity;BMP_temperature;BMP_pressure;BME280_temperature;BME280_humidity;BME280_pressure;Samples;Min_cycle;Max_cycle;Signal;HPM_P1;HPM_P2
2021/03/27 00:00:21;;;;;;;;;;;;;;;-0.73;74.35;96458.67;1779672;81;20167;-61
2021/03/27 00:03:06;;;;;;;;;;;;;;;-0.64;73.96;96458.16;1779336;81;20476;-60
2021/03/27 00:05:41;;;;;;;;;;;;;;;-0.58;73.05;96454.49;1779687;81;20444;-61
2021/03/27 00:08:37;;;;;;;;;;;;;;;-0.62;73.68;96452.21;1779355;81;20135;-60
2021/03/27 00:11:16;;;;;;;;;;;;;;;-0.76;73.97;96456.84;1779547;81;20167;-61
2021/03/27 00:13:52;;;;;;;;;;;;;;;-0.73;74.14;96449.22;1764462;81;20460;-61
2021/03/27 00:16:51;;;;;;;;;;;;;;;-0.78;73.59;96450.75;1779556;80;20151;-61
2021/03/27 00:19:38;;;;;;;;;;;;;;;-0.70;73.37;96451.92;1779578;80;20146;-61
2021/03/27 00:22:27;;;;;;;;;;;;;;;-0.62;73.72;96448.74;1779567;80;20452;-61
2021/03/27 00:25:22;;;;;;;;;;;;;;;-0.89;74.43;96446.84;1759157;81;20150;-61
2021/03/27 00:27:53;;;;;;;;;;;;;;;-0.94;74.03;96454.84;1779108;80;20439;-61
2021/03/27 00:30:24;;;;;;;;;;;;;;;-0.82;74.23;96455.33;1779560;81;20202;-61
2021/03/27 00:32:54;;;;;;;;;;;;;;;-0.84;74.76;96453.50;1778798;80;20174;-61
2021/03/27 00:35:34;;;;;;;;;;;;;;;-0.89;73.84;96455.48;1779295;81;20146;-61
2021/03/27 00:38:05;;;;;;;;;;;;;;;-0.82;74.05;96450.56;1779550;81;20172;-61
2021/03/27 00:40:35;;;;;;;;;;;;;;;-1.01;73.99;96456.30;1760397;81;20138;-61
2021/03/27 00:43:06;;;;;;;;;;;;;;;-0.96;73.99;96450.92;1779416;81;20174;-61
2021/03/27 00:45:42;;;;;;;;;;;;;;;-1.01;74.37;96456.72;1779628;81;20142;-61
2021/03/27 00:48:13;;;;;;;;;;;;;;;-1.01;73.95;96446.36;1759981;80;20233;-61
2021/03/27 00:50:53;;;;;;;;;;;;;;;-0.93;73.94;96449.73;1779364;80;20453;-61
2021/03/27 00:53:25;;;;;;;;;;;;;;;-0.81;73.54;96444.55;1770956;81;20155;-61
2021/03/27 00:56:03;;;;;;;;;;;;;;;-0.72;73.20;96446.20;1779528;81;20151;-61
2021/03/27 00:58:40;;;;;;;;;;;;;;;-0.80;73.10;96449.80;1779468;80;20146;-61
2021/03/27 01:01:09;;;;;;;;;;;;;;;-0.88;73.33;96456.40;1760275;81;20171;-61
2021/03/27 01:03:58;;;;;;;;;;;;;;;-0.95;73.45;96457.86;1779369;81;20142;-61
2021/03/27 01:06:49;;;;;;;;;;;;;;;-1.04;73.73;96459.20;1779539;81;20420;-61
2021/03/27 01:09:22;;;;;;;;;;;;;;;-1.13;73.69;96458.02;1775335;81;20134;-61
2021/03/27 01:12:10;;;;;;;;;;;;;;;-1.13;74.06;96460.60;1695766;85;20147;-61
2021/03/27 01:14:41;;;;;;;;;;;;;;;-1.13;73.85;96453.25;1779368;80;20130;-60
2021/03/27 01:17:12;;;;;;;;;;;;;;;-1.09;73.82;96456.41;1776921;80;20138;-61
2021/03/27 01:19:43;;;;;;;;;;;;;;;-1.05;73.75;96446.66;1779510;81;20452;-61
2021/03/27 01:22:12;;;;;;;;;;;;;;;-1.07;74.08;96448.72;1778882;80;20420;-61
2021/03/27 01:24:41;;;;;;;;;;;;;;;-1.12;73.87;96457.17;1779286;80;20136;-61
2021/03/27 01:27:24;;;;;;;;;;;;;;;-1.20;73.86;96452.52;1779507;81;20146;-61
2021/03/27 01:30:07;;;;;;;;;;;;;;;-1.14;73.68;96449.75;1779362;81;20178;-61
2021/03/27 01:32:50;;;;;;;;;;;;;;;-1.16;73.69;96454.39;1779493;80;20162;-61
2021/03/27 01:35:30;;;;;;;;;;;;;;;-1.13;73.92;96451.95;1779622;81;20163;-60
2021/03/27 01:38:16;;;;;;;;;;;;;;;-1.10;73.46;96451.66;1779291;80;20159;-61
2021/03/27 01:40:53;;;;;;;;;;;;;;;-1.06;73.38;96453.94;1779265;81;20148;-61
2021/03/27 01:43:30;;;;;;;;;;;;;;;-1.10;73.19;96457.25;1776750;81;20444;-61
2021/03/27 01:46:15;;;;;;;;;;;;;;;-1.15;73.87;96455.77;1779738;80;20150;-61
2021/03/27 01:49:01;;;;;;;;;;;;;;;-1.12;73.95;96456.30;1778601;80;20456;-61
2021/03/27 01:51:56;;;;;;;;;;;;;;;-1.07;73.16;96459.08;1779406;81;20155;-61
2021/03/27 01:54:45;;;;;;;;;;;;;;;-1.16;72.88;96456.60;1779597;81;20131;-61
2021/03/27 01:57:31;;;;;;;;;;;;;;;-1.29;74.22;96459.49;1779209;80;20166;-61
2021/03/27 02:00:03;;;;;;;;;;;;;;;-1.52;75.65;96462.43;1779403;80;20147;-61
2021/03/27 02:02:42;;;;;;;;;;;;;;;-1.67;75.33;96462.67;1778594;80;20146;-61
2021/03/27 02:05:20;;;;;;;;;;;;;;;-1.66;75.22;96462.25;1779696;80;20142;-61
2021/03/27 02:07:53;;;;;;;;;;;;;;;-1.53;75.06;96460.67;1779283;80;20150;-60
2021/03/27 02:10:30;;;;;;;;;;;;;;;-1.46;74.81;96461.80;1779415;81;20134;-61
2021/03/27 02:13:00;;;;;;;;;;;;;;;-1.42;74.71;96461.99;1779200;80;20171;-61
2021/03/27 02:15:44;;;;;;;;;;;;;;;-1.44;74.58;96453.69;1779511;80;20143;-61
2021/03/27 02:18:36;;;;;;;;;;;;;;;-1.68;75.61;96457.03;1778982;80;20166;-61
2021/03/27 02:21:24;;;;;;;;;;;;;;;-1.82;76.31;96453.84;1779474;81;20147;-60
2021/03/27 02:24:01;;;;;;;;;;;;;;;-1.69;75.73;96455.25;1779537;81;20464;-61
2021/03/27 02:26:55;;;;;;;;;;;;;;;-1.59;75.46;96462.61;1779584;81;20143;-61
2021/03/27 02:29:41;;;;;;;;;;;;;;;-1.69;75.32;96457.84;1779747;81;20150;-61
2021/03/27 02:32:21;;;;;;;;;;;;;;;-1.63;74.80;96465.00;1779824;81;20425;-61
2021/03/27 02:35:11;;;;;;;;;;;;;;;-1.56;74.75;96458.84;1779424;81;20154;-61
2021/03/27 02:37:57;;;;;;;;;;;;;;;-1.51;74.70;96461.63;1779798;80;20143;-61
2021/03/27 02:40:36;;;;;;;;;;;;;;;-1.55;74.68;96463.61;1779777;80;20148;-61
2021/03/27 02:43:13;;;;;;;;;;;;;;;-1.46;74.53;96465.67;1762014;81;20147;-61
2021/03/27 02:45:50;;;;;;;;;;;;;;;-1.42;74.38;96472.34;1779643;81;20463;-60
2021/03/27 02:48:24;;;;;;;;;;;;;;;-1.60;74.98;96476.77;1779772;81;20151;-61
2021/03/27 02:51:07;;;;;;;;;;;;;;;-1.65;75.02;96473.97;1778903;80;20183;-61
2021/03/27 02:53:47;;;;;;;;;;;;;;;-1.59;74.67;96478.52;1779934;80;20415;-61
2021/03/27 02:56:33;;;;;;;;;;;;;;;-1.65;74.75;96479.56;1779566;80;20143;-60
2021/03/27 02:59:23;;;;;;;;;;;;;;;-1.61;74.61;96477.18;1779035;80;20174;-61
2021/03/27 03:01:59;;;;;;;;;;;;;;;-1.49;74.45;96478.50;1779384;81;20451;-61
2021/03/27 03:04:36;;;;;;;;;;;;;;;-1.42;74.32;96473.64;1779794;80;20131;-60
2021/03/27 03:07:31;;;;;;;;;;;;;;;-1.53;74.09;96474.50;1779735;80;20152;-61
2021/03/27 03:10:04;;;;;;;;;;;;;;;-1.43;74.16;96473.18;1779400;81;20146;-61
2021/03/27 03:12:50;;;;;;;;;;;;;;;-1.51;74.46;96479.75;1778548;80;20463;-61
2021/03/27 03:15:27;;;;;;;;;;;;;;;-1.47;74.09;96476.45;1769144;81;20166;-61
2021/03/27 03:17:58;;;;;;;;;;;;;;;-1.43;74.56;96478.36;1779007;80;20158;-60
2021/03/27 03:20:48;;;;;;;;;;;;;;;-1.51;74.13;96477.16;1779726;80;20416;-61
2021/03/27 03:23:36;;;;;;;;;;;;;;;-1.53;74.31;96478.80;1779382;81;20130;-61
2021/03/27 03:26:07;;;;;;;;;;;;;;;-1.58;74.15;96480.31;1779563;81;20139;-60
2021/03/27 03:28:45;;;;;;;;;;;;;;;-1.63;74.16;96476.64;1779683;81;20194;-61
2021/03/27 03:31:28;;;;;;;;;;;;;;;-1.60;74.79;96472.47;1779166;80;20135;-61
2021/03/27 03:34:21;;;;;;;;;;;;;;;-1.55;74.19;96475.25;1779425;80;20158;-61
2021/03/27 03:36:52;;;;;;;;;;;;;;;-1.48;74.02;96472.11;1779551;80;20154;-61
2021/03/27 03:39:33;;;;;;;;;;;;;;;-1.44;73.73;96468.80;1779535;80;20142;-61
2021/03/27 03:42:26;;;;;;;;;;;;;;;-1.53;73.99;96476.20;1779468;81;20154;-60
2021/03/27 03:45:00;;;;;;;;;;;;;;;-1.64;74.04;96473.17;1768004;81;20159;-61
2021/03/27 03:47:47;;;;;;;;;;;;;;;-1.66;74.06;96477.78;1778690;80;20421;-60
2021/03/27 03:50:32;;;;;;;;;;;;;;;-1.64;74.36;96472.27;1795235;80;20252;-61
2021/03/27 03:53:03;;;;;;;;;;;;;;;-1.77;74.62;96475.62;1801851;80;20145;-60
2021/03/27 03:55:46;;;;;;;;;;;;;;;-1.68;74.25;96480.73;1802278;80;20241;-60
2021/03/27 03:58:32;;;;;;;;;;;;;;;-1.62;74.24;96478.39;1802043;80;20506;-61
2021/03/27 04:01:15;;;;;;;;;;;;;;;-1.57;74.11;96478.18;1802092;80;20228;-60
2021/03/27 04:03:47;;;;;;;;;;;;;;;-1.63;73.66;96479.23;1801925;80;20154;-60
2021/03/27 04:06:17;;;;;;;;;;;;;;;-1.61;73.96;96478.89;1800295;80;20240;-60
2021/03/27 04:09:12;;;;;;;;;;;;;;;-1.66;73.83;96486.45;1802263;80;20130;-61
2021/03/27 04:12:00;;;;;;;;;;;;;;;-1.79;73.95;96486.34;1801970;80;20153;-60
2021/03/27 04:14:37;;;;;;;;;;;;;;;-1.88;74.13;96494.11;1801934;80;20465;-61
2021/03/27 04:17:23;;;;;;;;;;;;;;;-1.99;74.30;96493.61;1802206;80;20240;-60
2021/03/27 04:19:54;;;;;;;;;;;;;;;-1.91;74.53;96490.10;1775603;80;20130;-60
2021/03/27 04:22:28;;;;;;;;;;;;;;;-1.94;74.86;96493.44;1802048;80;20283;-61
2021/03/27 04:25:15;;;;;;;;;;;;;;;-2.01;75.32;96493.98;1802561;80;20158;-61
2021/03/27 04:27:55;;;;;;;;;;;;;;;-1.95;75.08;96494.23;1801940;80;20143;-60
2021/03/27 04:30:32;;;;;;;;;;;;;;;-1.88;75.29;96496.28;1787040;80;20161;-61
2021/03/27 04:33:15;;;;;;;;;;;;;;;-1.78;75.03;96498.86;1802425;80;20157;-61
2021/03/27 04:35:50;;;;;;;;;;;;;;;-1.78;75.04;96498.44;1801583;80;20164;-60
2021/03/27 04:38:36;;;;;;;;;;;;;;;-1.78;75.29;96498.86;1802216;80;20240;-61
2021/03/27 04:41:41;;;;;;;;;;;;;;;-1.69;75.00;96500.53;1801911;80;20149;-61
2021/03/27 04:44:12;;;;;;;;;;;;;;;-1.64;75.02;96501.64;1802039;80;20245;-61
2021/03/27 04:47:11;;;;;;;;;;;;;;;-1.59;75.20;96500.52;1800919;80;20234;-60
2021/03/27 04:49:57;;;;;;;;;;;;;;;-1.58;75.32;96501.89;1777323;80;20158;-61
2021/03/27 04:52:37;;;;;;;;;;;;;;;-1.45;75.08;96496.81;1779529;80;20151;-60
2021/03/27 04:55:26;;;;;;;;;;;;;;;-1.36;74.54;96497.59;1779366;81;20408;-61
2021/03/27 04:58:08;;;;;;;;;;;;;;;-1.35;73.96;96491.20;1779511;81;20412;-61
2021/03/27 05:00:57;;;;;;;;;;;;;;;-1.40;73.74;96488.83;1760178;81;20158;-61
2021/03/27 05:03:27;;;;;;;;;;;;;;;-1.41;74.47;96495.23;1770692;81;20419;-60
2021/03/27 05:06:18;;;;;;;;;;;;;;;-1.52;75.14;96499.55;1779460;81;20134;-61
2021/03/27 05:08:49;;;;;;;;;;;;;;;-1.58;76.13;96504.47;1779643;81;20155;-61
2021/03/27 05:11:26;;;;;;;;;;;;;;;-1.57;76.16;96502.34;1779632;81;20400;-61
2021/03/27 05:14:03;;;;;;;;;;;;;;;-1.50;76.62;96511.27;1779584;81;20159;-61
2021/03/27 05:16:32;;;;;;;;;;;;;;;-1.37;76.71;96511.38;1779626;80;20135;-61
2021/03/27 05:19:19;;;;;;;;;;;;;;;-1.16;76.08;96504.89;1779707;81;20420;-60
2021/03/27 05:21:50;;;;;;;;;;;;;;;-1.04;76.11;96509.70;1779411;81;20435;-60
2021/03/27 05:24:41;;;;;;;;;;;;;;;-1.03;75.95;96516.25;1778240;80;20154;-60
2021/03/27 05:27:34;;;;;;;;;;;;;;;-1.04;76.25;96512.29;1759874;81;20154;-60
2021/03/27 05:30:12;;;;;;;;;;;;;;;-1.04;76.55;96514.46;1779571;81;20194;-61
2021/03/27 05:32:49;;;;;;;;;;;;;;;-0.97;76.70;96510.42;1778632;80;20146;-61
2021/03/27 05:35:29;;;;;;;;;;;;;;;-0.97;76.90;96508.72;1779426;81;20163;-61
2021/03/27 05:38:23;;;;;;;;;;;;;;;-0.87;76.83;96514.73;1779430;81;20151;-60
2021/03/27 05:41:28;;;;;;;;;;;;;;;-0.68;76.39;96507.30;1779711;80;20158;-61
2021/03/27 05:43:59;;;;;;;;;;;;;;;-0.44;74.93;96509.94;1779366;81;20431;-61
2021/03/27 05:47:04;;;;;;;;;;;;;;;-0.13;73.10;96495.52;1779436;81;20456;-60
2021/03/27 05:49:47;;;;;;;;;;;;;;;0.03;71.94;96490.92;1783120;80;20157;-60
2021/03/27 05:52:23;;;;;;;;;;;;;;;0.18;71.56;96494.95;1802140;80;20261;-61
2021/03/27 05:55:23;;;;;;;;;;;;;;;0.30;70.87;96489.28;1775332;80;20422;-60
2021/03/27 05:58:06;;;;;;;;;;;;;;;0.36;70.56;96492.11;1758799;80;20150;-61
2021/03/27 06:00:52;;;;;;;;;;;;;;;0.51;70.20;96493.48;1801824;80;20240;-61
2021/03/27 06:03:26;;;;;;;;;;;;;;;0.58;70.05;96505.44;1801559;80;20511;-60
2021/03/27 06:06:13;;;;;;;;;;;;;;;0.68;70.33;96500.53;1801963;80;20154;-61
2021/03/27 06:09:10;;;;;;;;;;;;;;;0.82;70.68;96498.88;1802116;80;20150;-60
2021/03/27 06:11:42;;;;;;;;;;;;;;;0.93;70.00;96490.55;1802025;80;20241;-61
2021/03/27 06:14:12;;;;;;;;;;;;;;;1.05;69.76;96500.05;1802041;80;20236;-61
2021/03/27 06:17:20;;;;;;;;;;;;;;;1.18;69.86;96498.30;1800338;80;20145;-60
2021/03/27 06:20:00;;;;;;;;;;;;;;;1.32;69.75;96490.95;1802039;80;20166;-60
2021/03/27 06:22:43;;;;;;;;;;;;;;;1.51;69.50;96487.19;1801207;80;20158;-61
2021/03/27 06:25:48;;;;;;;;;;;;;;;1.67;69.40;96485.53;1802059;80;20240;-61
2021/03/27 06:28:36;;;;;;;;;;;;;;;1.86;69.37;96480.86;1802031;80;20229;-61
2021/03/27 06:31:40;;;;;;;;;;;;;;;2.05;68.65;96477.97;1802012;80;20245;-61
2021/03/27 06:34:31;;;;;;;;;;;;;;;2.19;67.53;96480.94;1802090;80;20427;-61
2021/03/27 06:37:23;;;;;;;;;;;;;;;2.36;66.97;96476.20;1801105;80;20232;-61
2021/03/27 06:40:03;;;;;;;;;;;;;;;2.46;65.56;96468.23;1802187;80;20145;-61
2021/03/27 06:42:49;;;;;;;;;;;;;;;2.62;65.69;96469.50;1802007;80;20232;-61
2021/03/27 06:45:36;;;;;;;;;;;;;;;2.78;65.44;96467.77;1761890;80;20149;-61
2021/03/27 06:48:19;;;;;;;;;;;;;;;2.94;65.29;96468.59;1793898;80;20521;-61
2021/03/27 06:51:03;;;;;;;;;;;;;;;3.12;65.28;96465.55;1802101;80;20165;-61
2021/03/27 06:54:06;;;;;;;;;;;;;;;3.30;64.91;96468.14;1802245;80;20241;-61
2021/03/27 06:56:44;;;;;;;;;;;;;;;3.45;64.48;96466.80;1802125;80;20233;-61
2021/03/27 06:59:36;;;;;;;;;;;;;;;3.62;64.16;96460.62;1775261;80;20161;-61
2021/03/27 07:02:12;;;;;;;;;;;;;;;3.74;63.34;96461.34;1800149;80;20252;-61
2021/03/27 07:05:08;;;;;;;;;;;;;;;3.85;60.32;96468.95;1801427;80;20157;-61
2021/03/27 07:07:59;;;;;;;;;;;;;;;3.97;61.43;96464.86;1800801;80;20244;-61
2021/03/27 07:11:04;;;;;;;;;;;;;;;4.14;60.50;96471.75;1802075;80;20245;-61
2021/03/27 07:14:06;;;;;;;;;;;;;;;4.29;59.47;96464.22;1802085;80;20165;-61
2021/03/27 07:16:40;;;;;;;;;;;;;;;4.47;57.11;96468.48;1801750;80;20506;-61
2021/03/27 07:19:23;;;;;;;;;;;;;;;4.66;58.41;96467.50;1802320;80;20236;-61
2021/03/27 07:22:04;;;;;;;;;;;;;;;4.83;59.33;96467.38;1799337;80;20252;-61
2021/03/27 07:24:55;;;;;;;;;;;;;;;5.04;58.83;96465.98;1801959;80;20147;-61
2021/03/27 07:27:58;;;;;;;;;;;;;;;5.23;57.84;96463.27;1802286;80;20149;-61
2021/03/27 07:30:32;;;;;;;;;;;;;;;5.42;58.09;96457.03;1802000;80;20157;-61
2021/03/27 07:33:25;;;;;;;;;;;;;;;5.62;57.42;96452.53;1801992;80;20252;-61
2021/03/27 07:36:20;;;;;;;;;;;;;;;5.82;57.46;96456.70;1802213;80;20237;-61
2021/03/27 07:39:03;;;;;;;;;;;;;;;6.07;56.65;96460.56;1802006;80;20154;-61
2021/03/27 07:41:37;;;;;;;;;;;;;;;6.28;56.88;96459.53;1802286;80;20154;-61
2021/03/27 07:44:11;;;;;;;;;;;;;;;6.49;52.01;96451.03;1800389;80;20157;-59
2021/03/27 07:47:16;;;;;;;;;;;;;;;6.69;53.65;96452.55;1802278;80;20166;-59
2021/03/27 07:50:04;;;;;;;;;;;;;;;6.91;55.03;96448.84;1801877;80;20241;-58
2021/03/27 07:52:38;;;;;;;;;;;;;;;7.17;54.80;96451.69;1801965;80;20153;-59
2021/03/27 07:55:29;;;;;;;;;;;;;;;7.38;52.54;96445.72;1802152;80;20236;-59
2021/03/27 07:58:33;;;;;;;;;;;;;;;7.58;53.43;96448.48;1802108;80;20253;-59
2021/03/27 08:01:21;;;;;;;;;;;;;;;7.77;53.48;96446.43;1802131;80;20130;-59
2021/03/27 08:04:28;;;;;;;;;;;;;;;8.03;53.46;96450.50;1801874;80;20161;-59
2021/03/27 08:07:03;;;;;;;;;;;;;;;8.26;49.89;96444.47;1802215;80;20534;-59
2021/03/27 08:10:08;;;;;;;;;;;;;;;8.51;51.45;96448.55;1794700;80;20173;-59
2021/03/27 08:13:11;;;;;;;;;;;;;;;8.72;51.60;96446.41;1802037;80;20447;-59
2021/03/27 08:15:58;;;;;;;;;;;;;;;8.95;49.01;96437.26;1801907;80;20130;-59
2021/03/27 08:19:00;;;;;;;;;;;;;;;9.12;47.49;96431.98;1802104;80;20435;-59
2021/03/27 08:21:41;;;;;;;;;;;;;;;9.27;48.21;96438.16;1802250;80;20240;-59
2021/03/27 08:24:41;;;;;;;;;;;;;;;9.41;47.48;96427.60;1801972;80;20439;-59
2021/03/27 08:27:28;;;;;;;;;;;;;;;9.62;48.64;96436.36;1801996;80;20141;-59
2021/03/27 08:30:16;;;;;;;;;;;;;;;9.76;47.94;96439.86;1802052;80;20145;-58
2021/03/27 08:33:20;;;;;;;;;;;;;;;9.89;46.85;96434.98;1801854;80;20138;-59
2021/03/27 08:35:50;;;;;;;;;;;;;;;10.04;46.69;96434.08;1802198;80;20256;-59
2021/03/27 08:38:37;;;;;;;;;;;;;;;10.25;45.27;96430.92;1802021;80;20236;-58
2021/03/27 08:41:39;;;;;;;;;;;;;;;10.40;45.61;96430.89;1801971;80;20133;-59
2021/03/27 08:44:19;;;;;;;;;;;;;;;10.55;45.70;96431.26;1801972;80;20442;-59
2021/03/27 08:47:01;;;;;;;;;;;;;;;10.64;44.59;96429.91;1801939;80;20149;-59
2021/03/27 08:50:03;;;;;;;;;;;;;;;10.83;45.35;96424.05;1802222;80;20130;-58
2021/03/27 08:52:43;;;;;;;;;;;;;;;10.87;41.98;96423.61;1749272;82;20145;-59
2021/03/27 08:55:34;;;;;;;;;;;;;;;11.01;43.56;96423.05;1752072;82;20446;-61
2021/03/27 08:58:20;;;;;;;;;;;;;;;11.04;41.56;96422.61;1774276;80;20186;-60
2021/03/27 09:01:08;;;;;;;;;;;;;;;11.21;43.05;96417.20;1782472;80;20175;-61
2021/03/27 09:04:01;;;;;;;;;;;;;;;11.41;41.62;96422.75;1757409;80;20162;-61
2021/03/27 09:06:35;;;;;;;;;;;;;;;11.46;40.46;96420.94;1781994;80;20249;-60
2021/03/27 09:09:31;;;;;;;;;;;;;;;11.58;40.16;96416.88;1783480;80;20245;-61
2021/03/27 09:12:34;;;;;;;;;;;;;;;11.76;41.79;96412.30;1782847;80;20258;-61
2021/03/27 09:15:17;;;;;;;;;;;;;;;11.90;41.21;96413.08;1783513;80;20249;-61
2021/03/27 09:17:54;;;;;;;;;;;;;;;12.06;40.89;96405.38;1783034;80;20515;-61
2021/03/27 09:20:58;;;;;;;;;;;;;;;12.05;38.25;96404.97;1783337;80;20543;-61
2021/03/27 09:23:40;;;;;;;;;;;;;;;12.29;40.35;96402.91;1782618;80;20150;-61
2021/03/27 09:26:17;;;;;;;;;;;;;;;12.45;38.19;96403.63;1783342;80;20515;-61
2021/03/27 09:28:57;;;;;;;;;;;;;;;12.60;38.49;96397.22;1783310;80;20241;-61
2021/03/27 09:32:01;;;;;;;;;;;;;;;12.64;38.57;96394.52;1783114;80;20155;-60
2021/03/27 09:35:01;;;;;;;;;;;;;;;12.76;38.54;96391.70;1783256;80;20245;-61
2021/03/27 09:37:55;;;;;;;;;;;;;;;12.93;39.62;96399.41;1783519;80;20146;-61
2021/03/27 09:40:29;;;;;;;;;;;;;;;12.92;36.28;96391.47;1783256;80;20289;-61
2021/03/27 09:43:30;;;;;;;;;;;;;;;13.03;36.00;96386.00;1783193;80;20234;-61
2021/03/27 09:46:22;;;;;;;;;;;;;;;13.15;36.10;96384.48;1766747;80;20334;-58
2021/03/27 09:49:28;;;;;;;;;;;;;;;13.26;35.49;96392.28;1783349;80;20423;-58
2021/03/27 09:52:28;;;;;;;;;;;;;;;13.39;36.34;96389.42;1780567;80;20158;-58
2021/03/27 09:55:19;;;;;;;;;;;;;;;13.57;34.31;96388.22;1777648;81;20428;-58
2021/03/27 09:58:05;;;;;;;;;;;;;;;13.49;34.25;96382.65;1778776;80;20142;-58
2021/03/27 10:00:52;;;;;;;;;;;;;;;13.62;32.66;96375.76;1779670;80;20158;-58
2021/03/27 10:03:46;;;;;;;;;;;;;;;13.66;33.20;96374.38;1779537;81;20428;-58
2021/03/27 10:06:26;;;;;;;;;;;;;;;13.71;33.35;96378.72;1779719;81;20147;-57
2021/03/27 10:09:14;;;;;;;;;;;;;;;13.98;33.93;96375.09;1779690;81;20130;-58
2021/03/27 10:11:43;;;;;;;;;;;;;;;14.15;32.88;96378.76;1779296;81;20467;-58
2021/03/27 10:14:23;;;;;;;;;;;;;;;14.33;32.70;96374.84;1779395;81;20150;-58
2021/03/27 10:16:54;;;;;;;;;;;;;;;14.46;35.20;96369.69;1778469;80;20448;-59
2021/03/27 10:19:30;;;;;;;;;;;;;;;14.60;33.36;96367.66;1778628;81;20150;-58
2021/03/27 10:22:10;;;;;;;;;;;;;;;14.67;31.74;96369.27;1779408;81;20135;-58
2021/03/27 10:24:44;;;;;;;;;;;;;;;14.77;32.18;96363.30;1779522;80;20150;-58
2021/03/27 10:27:24;;;;;;;;;;;;;;;14.90;32.79;96363.43;1779079;80;20158;-58
2021/03/27 10:30:02;;;;;;;;;;;;;;;14.80;32.36;96364.55;1779435;81;20155;-58
2021/03/27 10:32:33;;;;;;;;;;;;;;;14.93;31.90;96369.12;1779118;80;20147;-58
2021/03/27 10:35:04;;;;;;;;;;;;;;;14.87;32.31;96361.31;1779516;81;20147;-58
2021/03/27 10:37:44;;;;;;;;;;;;;;;14.86;33.72;96371.50;1779442;81;20178;-58
2021/03/27 10:40:35;;;;;;;;;;;;;;;15.07;33.85;96363.05;1779509;81;20419;-58
2021/03/27 10:43:26;;;;;;;;;;;;;;;15.23;33.27;96367.98;1779552;81;20159;-58
2021/03/27 10:46:05;;;;;;;;;;;;;;;15.29;31.14;96365.16;1779301;81;20138;-58
2021/03/27 10:49:07;;;;;;;;;;;;;;;15.05;29.50;96363.53;1779531;80;20154;-58
2021/03/27 10:52:07;;;;;;;;;;;;;;;15.12;30.82;96355.83;1779494;80;20151;-58
2021/03/27 10:54:39;;;;;;;;;;;;;;;15.14;34.20;96363.31;1779741;80;20151;-58
2021/03/27 10:57:25;;;;;;;;;;;;;;;15.14;32.61;96358.00;1779624;81;20151;-58
2021/03/27 11:00:15;;;;;;;;;;;;;;;15.35;30.01;96359.25;1779117;80;20472;-58
2021/03/27 11:03:06;;;;;;;;;;;;;;;15.50;32.72;96353.13;1779432;81;20166;-58
2021/03/27 11:05:55;;;;;;;;;;;;;;;15.78;33.01;96355.50;1779526;80;20174;-58
2021/03/27 11:08:29;;;;;;;;;;;;;;;16.02;31.23;96353.07;1779837;81;20167;-58
2021/03/27 11:11:07;;;;;;;;;;;;;;;16.17;29.74;96337.99;1777295;80;20139;-58
2021/03/27 11:13:53;;;;;;;;;;;;;;;16.46;29.39;96337.62;1779552;81;20455;-59
2021/03/27 11:16:42;;;;;;;;;;;;;;;16.77;28.17;96333.55;1779517;80;20432;-58
2021/03/27 11:19:32;;;;;;;;;;;;;;;17.13;28.83;96330.66;1742971;80;20139;-58
2021/03/27 11:22:35;;;;;;;;;;;;;;;17.39;28.19;96327.61;1779695;81;20174;-58
2021/03/27 11:25:25;;;;;;;;;;;;;;;17.63;27.87;96328.55;1779744;81;20151;-58
2021/03/27 11:27:56;;;;;;;;;;;;;;;17.94;27.23;96329.70;1779471;80;20162;-58
2021/03/27 11:30:42;;;;;;;;;;;;;;;18.53;26.76;96325.29;1779551;80;20154;-59
2021/03/27 11:33:48;;;;;;;;;;;;;;;18.98;27.46;96324.92;1737599;80;20171;-59
2021/03/27 11:36:24;;;;;;;;;;;;;;;19.31;23.96;96325.82;1779440;81;20146;-59
2021/03/27 11:39:18;;;;;;;;;;;;;;;19.44;25.24;96319.02;1779887;80;20158;-59
2021/03/27 11:42:02;;;;;;;;;;;;;;;19.71;24.18;96321.50;1779340;81;20138;-59
2021/03/27 11:44:38;;;;;;;;;;;;;;;19.83;23.46;96322.28;1779525;80;20443;-59
2021/03/27 11:47:28;;;;;;;;;;;;;;;19.95;25.36;96319.07;1779534;81;20154;-59
2021/03/27 11:50:01;;;;;;;;;;;;;;;20.46;24.99;96312.76;1779523;80;20166;-59
2021/03/27 11:52:41;;;;;;;;;;;;;;;20.84;23.77;96302.97;1778532;80;20171;-59
2021/03/27 11:55:30;;;;;;;;;;;;;;;21.05;22.35;96297.03;1779538;80;20444;-59
2021/03/27 11:58:07;;;;;;;;;;;;;;;21.21;22.77;96302.50;1779494;80;20175;-59
2021/03/27 12:03:39;;;;;;;;;;;;;;;21.57;21.95;96304.31;1741270;81;20425;-59
2021/03/27 12:06:16;;;;;;;;;;;;;;;21.68;22.51;96301.11;1779783;80;20151;-59
2021/03/27 12:09:11;;;;;;;;;;;;;;;22.10;20.86;96302.48;1779767;80;20177;-59
2021/03/27 12:12:03;;;;;;;;;;;;;;;22.05;20.22;96300.06;1779515;81;20150;-59
2021/03/27 12:14:42;;;;;;;;;;;;;;;22.18;19.86;96297.11;1779523;80;20142;-59
2021/03/27 12:17:49;;;;;;;;;;;;;;;22.22;21.89;96287.08;1751858;80;20420;-59
2021/03/27 12:20:35;;;;;;;;;;;;;;;22.52;18.40;96289.92;1779523;80;20138;-59
2021/03/27 12:23:22;;;;;;;;;;;;;;;22.46;19.34;96283.06;1779471;80;20452;-60
2021/03/27 12:26:11;;;;;;;;;;;;;;;22.45;19.30;96279.10;1779667;81;20146;-59
2021/03/27 12:29:01;;;;;;;;;;;;;;;22.76;19.33;96284.16;1779469;81;20147;-58
2021/03/27 12:31:45;;;;;;;;;;;;;;;22.44;19.65;96279.59;1779482;81;20131;-59
2021/03/27 12:34:28;;;;;;;;;;;;;;;22.85;18.88;96284.48;1779473;80;20154;-59
2021/03/27 12:37:16;;;;;;;;;;;;;;;22.27;22.28;96285.01;1778424;80;20443;-59
2021/03/27 12:40:16;;;;;;;;;;;;;;;22.44;18.94;96283.62;1779777;80;20177;-59
2021/03/27 12:42:46;;;;;;;;;;;;;;;22.58;21.18;96274.81;1779431;81;20174;-59
2021/03/27 12:45:23;;;;;;;;;;;;;;;23.11;17.46;96278.16;1779651;81;20146;-59
2021/03/27 12:48:17;;;;;;;;;;;;;;;23.15;17.21;96275.66;1777914;80;20174;-59
2021/03/27 12:51:22;;;;;;;;;;;;;;;23.18;18.09;96271.91;1779623;81;20154;-59
2021/03/27 12:54:05;;;;;;;;;;;;;;;23.33;17.69;96277.75;1785975;80;20149;-59
2021/03/27 12:56:56;;;;;;;;;;;;;;;23.64;17.64;96270.58;1798409;80;20149;-59
2021/03/27 12:59:53;;;;;;;;;;;;;;;23.65;17.51;96271.81;1801630;80;20157;-59
2021/03/27 13:02:37;;;;;;;;;;;;;;;23.73;17.38;96269.55;1775742;80;20419;-59
2021/03/27 13:05:25;;;;;;;;;;;;;;;23.75;17.21;96256.86;1802081;80;20240;-60
2021/03/27 13:07:56;;;;;;;;;;;;;;;23.73;17.30;96256.57;1783417;80;20181;-59
2021/03/27 13:10:46;;;;;;;;;;;;;;;23.59;18.94;96265.95;1802174;80;20169;-59
2021/03/27 13:13:36;;;;;;;;;;;;;;;23.95;17.50;96257.00;1801892;80;20549;-59
2021/03/27 13:16:13;;;;;;;;;;;;;;;24.16;17.16;96255.28;1802213;80;20229;-59
2021/03/27 13:18:56;;;;;;;;;;;;;;;23.55;16.03;96265.24;1801467;80;20237;-59
2021/03/27 13:21:27;;;;;;;;;;;;;;;23.80;17.93;96257.08;1800761;80;20196;-59
2021/03/27 13:24:09;;;;;;;;;;;;;;;24.10;15.88;96258.37;1760526;80;20169;-59
2021/03/27 13:26:36;;;;;;;;;;;;;;;23.52;15.72;96258.22;1801741;80;20443;-59
2021/03/27 13:29:10;;;;;;;;;;;;;;;23.32;17.21;96258.05;1801875;80;20157;-59
2021/03/27 13:31:46;;;;;;;;;;;;;;;23.93;17.01;96258.05;1799024;80;20233;-59
2021/03/27 13:34:36;;;;;;;;;;;;;;;23.80;16.63;96252.55;1774930;80;20430;-59
2021/03/27 13:37:28;;;;;;;;;;;;;;;24.45;17.40;96255.31;1801967;80;20447;-60
2021/03/27 13:40:12;;;;;;;;;;;;;;;24.60;17.22;96253.88;1783323;80;20130;-59
2021/03/27 13:43:04;;;;;;;;;;;;;;;25.08;15.47;96248.09;1820420;79;20214;-60
2021/03/27 13:45:43;;;;;;;;;;;;;;;24.53;16.38;96251.67;1791140;80;20440;-59
2021/03/27 13:48:32;;;;;;;;;;;;;;;24.73;17.84;96250.39;1789549;80;20174;-60
2021/03/27 13:51:27;;;;;;;;;;;;;;;25.23;15.33;96239.50;1791270;80;20146;-60
2021/03/27 13:54:21;;;;;;;;;;;;;;;25.23;14.60;96239.50;1791067;80;20147;-59
2021/03/27 13:57:00;;;;;;;;;;;;;;;25.09;15.95;96239.02;1788656;80;20458;-60
2021/03/27 13:59:52;;;;;;;;;;;;;;;25.24;15.15;96235.32;1791176;80;20147;-60
2021/03/27 14:02:42;;;;;;;;;;;;;;;25.66;14.40;96223.94;1791040;80;20177;-62
2021/03/27 14:05:45;;;;;;;;;;;;;;;26.34;13.37;96232.27;1791258;80;20169;-59
2021/03/27 14:08:43;;;;;;;;;;;;;;;26.34;12.89;96228.71;1791143;80;20169;-59
2021/03/27 14:11:19;;;;;;;;;;;;;;;26.17;12.18;96231.75;1790908;80;20153;-60
2021/03/27 14:14:02;;;;;;;;;;;;;;;25.40;12.55;96232.48;1791193;80;20416;-59
2021/03/27 14:16:45;;;;;;;;;;;;;;;24.89;14.38;96225.96;1791044;80;20154;-59
2021/03/27 14:19:50;;;;;;;;;;;;;;;24.65;15.52;96231.14;1791326;80;20146;-59